sensor_id;sensor_type;location;lat;lon;timestamp;P1;durP1;ratioP1;P2;durP2;ratioP2
55527;SDS011;52818;43.308;21.916;2022-11-14T00:01:48;26.10;;;18.50;;
55527;SDS011;52818;43.308;21.916;2022-11-14T00:03:49;22.90;;;16.60;;
55527;SDS011;52818;43.308;21.916;2022-11-14T00:05:49;24.40;;;18.10;;
55527;SDS011;52818;43.308;21.916;2022-11-14T00:07:49;25.30;;;18.20;;
55527;SDS011;52818;43.308;21.916;2022-11-14T00:09:49;25.80;;;18.60;;
55527;SDS011;52818;43.308;21.916;2022-11-14T00:11:49;28.30;;;20.10;;
55527;SDS011;52818;43.308;21.916;2022-11-14T00:13:49;27.80;;;19.90;;
55527;SDS011;52818;43.308;21.916;2022-11-14T00:15:50;26.60;;;19.50;;
55527;SDS011;52818;43.308;21.916;2022-11-14T00:17:49;25.90;;;19.20;;
55527;SDS011;52818;43.308;21.916;2022-11-14T00:19:49;27.20;;;19.80;;
55527;SDS011;52818;43.308;21.916;2022-11-14T00:21:49;27.00;;;;;
55527;SDS011;52818;43.308;21.916;2022-11-14T00:23:49;28.40;;;20.50;;
55527;SDS011;52818;43.308;21.916;2022-11-14T00:25:50;29.00;;;21.00;;
55527;SDS011;52818;43.308;21.916;2022-11-14T00:27:50;27.60;;;20.80;;
55527;SDS011;52818;43.308;21.916;2022-11-14T00:29:50;28.80;;;21.30;;
55527;SDS011;52818;43.308;21.916;2022-11-14T00:31:50;33.10;;;23.40;;
55527;SDS011;52818;43.308;21.916;2022-11-14T00:33:50;27.10;;;20.10;;
55527;SDS011;52818;43.308;21.916;2022-11-14T00:35:51;25.10;;;19.20;;
55527;SDS011;52818;43.308;21.916;2022-11-14T00:37:50;24.50;;;17.60;;
55527;SDS011;52818;43.308;21.916;2022-11-14T00:39:50;22.00;;;16.70;;
55527;SDS011;52818;43.308;21.916;2022-11-14T00:41:50;22.40;;;16.80;;
55527;SDS011;52818;43.308;21.916;2022-11-14T00:43:50;24.70;;;17.50;;
55527;SDS011;52818;43.308;21.916;2022-11-14T00:45:51;24.00;;;17.60;;
55527;SDS011;52818;43.308;21.916;2022-11-14T00:47:51;23.30;;;17.30;;
55527;SDS011;52818;43.308;21.916;2022-11-14T00:49:51;25.10;;;17.70;;
55527;SDS011;52818;43.308;21.916;2022-11-14T00:51:51;24.90;;;17.80;;
55527;SDS011;52818;43.308;21.916;2022-11-14T00:53:51;21.30;;;15.50;;
55527;SDS011;52818;43.308;21.916;2022-11-14T00:55:51;22.50;;;16.00;;
55527;SDS011;52818;43.308;21.916;2022-11-14T00:57:51;;;;15.80;;
55527;SDS011;52818;43.308;21.916;2022-11-14T00:59:51;22.20;;;15.90;;
55527;SDS011;52818;43.308;21.916;2022-11-14T01:01:51;21.40;;;16.70;;
55527;SDS011;52818;43.308;21.916;2022-11-14T01:03:51;22.60;;;;;
55527;SDS011;52818;43.308;21.916;2022-11-14T01:05:52;21.30;;;15.60;;
55527;SDS011;52818;43.308;21.916;2022-11-14T01:07:52;22.80;;;16.20;;
55527;SDS011;52818;43.308;21.916;2022-11-14T01:09:52;20.90;;;15.50;;
55527;SDS011;52818;43.308;21.916;2022-11-14T01:11:52;21.10;;;16.00;;
55527;SDS011;52818;43.308;21.916;2022-11-14T01:13:52;22.30;;;16.40;;
55527;SDS011;52818;43.308;21.916;2022-11-14T01:15:52;23.50;;;17.10;;
55527;SDS011;52818;43.308;21.916;2022-11-14T01:17:52;22.90;;;17.60;;
55527;SDS011;52818;43.308;21.916;2022-11-14T01:19:52;22.40;;;17.30;;
55527;SDS011;52818;43.308;21.916;2022-11-14T01:21:52;22.90;;;17.00;;
55527;SDS011;52818;43.308;21.916;2022-11-14T01:23:53;23.10;;;;;
55527;SDS011;52818;43.308;21.916;2022-11-14T01:25:52;22.00;;;16.60;;
55527;SDS011;52818;43.308;21.916;2022-11-14T01:27:53;22.30;;;16.80;;
55527;SDS011;52818;43.308;21.916;2022-11-14T01:29:53;23.00;;;16.60;;
55527;SDS011;52818;43.308;21.916;2022-11-14T01:31:53;23.40;;;17.50;;
55527;SDS011;52818;43.308;21.916;2022-11-14T01:33:53;22.40;;;16.50;;
55527;SDS011;52818;43.308;21.916;2022-11-14T01:35:53;22.80;;;16.80;;
55527;SDS011;52818;43.308;21.916;2022-11-14T01:37:53;23.10;;;;;
55527;SDS011;52818;43.308;21.916;2022-11-14T01:39:53;26.20;;;18.60;;
55527;SDS011;52818;43.308;21.916;2022-11-14T01:41:53;25.10;;;19.00;;
55527;SDS011;52818;43.308;21.916;2022-11-14T01:43:53;28.40;;;20.70;;
55527;SDS011;52818;43.308;21.916;2022-11-14T01:45:55;33.80;;;23.10;;
55527;SDS011;52818;43.308;21.916;2022-11-14T01:47:53;32.90;;;22.40;;
55527;SDS011;52818;43.308;21.916;2022-11-14T01:49:54;32.10;;;22.10;;
55527;SDS011;52818;43.308;21.916;2022-11-14T01:51:55;31.00;;;21.80;;
55527;SDS011;52818;43.308;21.916;2022-11-14T01:53:54;27.40;;;19.70;;
55527;SDS011;52818;43.308;21.916;2022-11-14T01:55:55;23.80;;;17.90;;
55527;SDS011;52818;43.308;21.916;2022-11-14T01:57:54;24.80;;;17.60;;
55527;SDS011;52818;43.308;21.916;2022-11-14T01:59:54;21.70;;;16.60;;
55527;SDS011;52818;43.308;21.916;2022-11-14T02:01:54;22.70;;;17.00;;
55527;SDS011;52818;43.308;21.916;2022-11-14T02:03:54;22.20;;;15.80;;
55527;SDS011;52818;43.308;21.916;2022-11-14T02:05:54;23.20;;;17.10;;
55527;SDS011;52818;43.308;21.916;2022-11-14T02:07:54;20.90;;;15.60;;
55527;SDS011;52818;43.308;21.916;2022-11-14T02:09:54;19.90;;;;;
55527;SDS011;52818;43.308;21.916;2022-11-14T02:11:55;23.20;;;16.40;;
55527;SDS011;52818;43.308;21.916;2022-11-14T02:13:55;22.30;;;16.60;;
55527;SDS011;52818;43.308;21.916;2022-11-14T02:15:55;21.20;;;15.80;;
55527;SDS011;52818;43.308;21.916;2022-11-14T02:17:55;21.40;;;15.10;;
55527;SDS011;52818;43.308;21.916;2022-11-14T02:19:59;24.20;;;16.60;;
55527;SDS011;52818;43.308;21.916;2022-11-14T02:21:55;22.10;;;16.80;;
55527;SDS011;52818;43.308;21.916;2022-11-14T02:23:55;20.70;;;16.00;;
55527;SDS011;52818;43.308;21.916;2022-11-14T02:25:55;21.70;;;16.30;;
55527;SDS011;52818;43.308;21.916;2022-11-14T02:27:55;22.00;;;15.50;;
55527;SDS011;52818;43.308;21.916;2022-11-14T02:30:01;23.60;;;16.30;;
55527;SDS011;52818;43.308;21.916;2022-11-14T02:31:55;23.50;;;16.90;;
55527;SDS011;52818;43.308;21.916;2022-11-14T02:33:56;22.80;;;16.20;;
55527;SDS011;52818;43.308;21.916;2022-11-14T02:35:56;;;;15.60;;
55527;SDS011;52818;43.308;21.916;2022-11-14T02:37:56;20.30;;;15.50;;
55527;SDS011;52818;43.308;21.916;2022-11-14T02:39:56;21.70;;;15.30;;
55527;SDS011;52818;43.308;21.916;2022-11-14T02:41:56;22.50;;;16.10;;
55527;SDS011;52818;43.308;21.916;2022-11-14T02:43:56;21.80;;;16.40;;
55527;SDS011;52818;43.308;21.916;2022-11-14T02:45:56;22.60;;;17.30;;
55527;SDS011;52818;43.308;21.916;2022-11-14T02:47:56;26.10;;;19.30;;
55527;SDS011;52818;43.308;21.916;2022-11-14T02:49:56;27.10;;;20.20;;
55527;SDS011;52818;43.308;21.916;2022-11-14T02:51:56;26.10;;;19.50;;
55527;SDS011;52818;43.308;21.916;2022-11-14T02:53:56;26.80;;;19.30;;
55527;SDS011;52818;43.308;21.916;2022-11-14T02:55:56;26.50;;;19.40;;
55527;SDS011;52818;43.308;21.916;2022-11-14T02:57:57;25.70;;;18.20;;
55527;SDS011;52818;43.308;21.916;2022-11-14T02:59:57;24.70;;;;;
55527;SDS011;52818;43.308;21.916;2022-11-14T03:01:57;24.80;;;;;
55527;SDS011;52818;43.308;21.916;2022-11-14T03:03:57;24.40;;;18.00;;
55527;SDS011;52818;43.308;21.916;2022-11-14T03:05:57;23.00;;;16.80;;
55527;SDS011;52818;43.308;21.916;2022-11-14T03:07:57;23.40;;;17.40;;
55527;SDS011;52818;43.308;21.916;2022-11-14T03:09:57;25.30;;;17.20;;
55527;SDS011;52818;43.308;21.916;2022-11-14T03:11:57;23.50;;;16.40;;
55527;SDS011;52818;43.308;21.916;2022-11-14T03:13:58;20.70;;;16.00;;
55527;SDS011;52818;43.308;21.916;2022-11-14T03:16:03;22.80;;;16.20;;
55527;SDS011;52818;43.308;21.916;2022-11-14T03:17:57;21.20;;;15.60;;
55527;SDS011;52818;43.308;21.916;2022-11-14T03:20:28;20.50;;;15.40;;
55527;SDS011;52818;43.308;21.916;2022-11-14T03:22:28;21.50;;;16.10;;
55527;SDS011;52818;43.308;21.916;2022-11-14T03:24:28;20.90;;;15.50;;
55527;SDS011;52818;43.308;21.916;2022-11-14T03:26:28;22.30;;;15.80;;
55527;SDS011;52818;43.308;21.916;2022-11-14T03:28:28;21.10;;;15.60;;
55527;SDS011;52818;43.308;21.916;2022-11-14T03:30:28;21.60;;;16.00;;
55527;SDS011;52818;43.308;21.916;2022-11-14T03:32:28;22.10;;;16.80;;
55527;SDS011;52818;43.308;21.916;2022-11-14T03:34:28;22.80;;;16.50;;
55527;SDS011;52818;43.308;21.916;2022-11-14T03:36:29;22.20;;;16.90;;
55527;SDS011;52818;43.308;21.916;2022-11-14T03:38:29;21.40;;;16.50;;
55527;SDS011;52818;43.308;21.916;2022-11-14T03:40:29;22.10;;;16.10;;
55527;SDS011;52818;43.308;21.916;2022-11-14T03:42:31;21.80;;;16.50;;
55527;SDS011;52818;43.308;21.916;2022-11-14T03:44:29;21.60;;;16.00;;
55527;SDS011;52818;43.308;21.916;2022-11-14T03:46:29;21.40;;;16.30;;
55527;SDS011;52818;43.308;21.916;2022-11-14T03:48:29;21.30;;;15.60;;
55527;SDS011;52818;43.308;21.916;2022-11-14T03:50:29;21.90;;;15.50;;
55527;SDS011;52818;43.308;21.916;2022-11-14T03:52:29;22.70;;;15.40;;
55527;SDS011;52818;43.308;21.916;2022-11-14T03:54:30;;;;16.70;;
55527;SDS011;52818;43.308;21.916;2022-11-14T03:56:30;23.00;;;15.90;;
55527;SDS011;52818;43.308;21.916;2022-11-14T03:58:30;21.10;;;16.70;;
55527;SDS011;52818;43.308;21.916;2022-11-14T04:00:30;23.40;;;17.00;;
55527;SDS011;52818;43.308;21.916;2022-11-14T04:02:30;22.70;;;16.70;;
55527;SDS011;52818;43.308;21.916;2022-11-14T04:04:30;23.10;;;16.90;;
55527;SDS011;52818;43.308;21.916;2022-11-14T04:06:30;23.50;;;17.50;;
55527;SDS011;52818;43.308;21.916;2022-11-14T04:08:30;23.40;;;17.00;;
55527;SDS011;52818;43.308;21.916;2022-11-14T04:10:31;24.40;;;17.10;;
55527;SDS011;52818;43.308;21.916;2022-11-14T04:12:31;23.10;;;17.00;;
55527;SDS011;52818;43.308;21.916;2022-11-14T04:14:31;22.70;;;16.40;;
55527;SDS011;52818;43.308;21.916;2022-11-14T04:16:31;22.00;;;16.50;;
55527;SDS011;52818;43.308;21.916;2022-11-14T04:18:31;23.40;;;16.70;;
55527;SDS011;52818;43.308;21.916;2022-11-14T04:20:31;25.80;;;17.10;;
55527;SDS011;52818;43.308;21.916;2022-11-14T04:22:31;23.50;;;16.90;;
55527;SDS011;52818;43.308;21.916;2022-11-14T04:24:31;22.30;;;16.70;;
55527;SDS011;52818;43.308;21.916;2022-11-14T04:26:31;22.50;;;17.00;;
55527;SDS011;52818;43.308;21.916;2022-11-14T04:28:32;24.10;;;17.10;;
55527;SDS011;52818;43.308;21.916;2022-11-14T04:30:32;22.10;;;17.00;;
55527;SDS011;52818;43.308;21.916;2022-11-14T04:32:32;23.70;;;17.10;;
55527;SDS011;52818;43.308;21.916;2022-11-14T04:34:32;24.10;;;17.40;;
55527;SDS011;52818;43.308;21.916;2022-11-14T04:36:32;22.80;;;16.60;;
55527;SDS011;52818;43.308;21.916;2022-11-14T04:38:32;23.40;;;16.70;;
55527;SDS011;52818;43.308;21.916;2022-11-14T04:40:32;;;;17.10;;
55527;SDS011;52818;43.308;21.916;2022-11-14T04:42:32;24.80;;;17.80;;
55527;SDS011;52818;43.308;21.916;2022-11-14T04:44:32;23.50;;;18.20;;
55527;SDS011;52818;43.308;21.916;2022-11-14T04:46:32;24.00;;;17.20;;
55527;SDS011;52818;43.308;21.916;2022-11-14T04:48:33;23.90;;;17.00;;
55527;SDS011;52818;43.308;21.916;2022-11-14T04:50:33;26.10;;;17.60;;
55527;SDS011;52818;43.308;21.916;2022-11-14T04:52:33;23.80;;;17.20;;
55527;SDS011;52818;43.308;21.916;2022-11-14T04:54:33;24.40;;;17.30;;
55527;SDS011;52818;43.308;21.916;2022-11-14T04:56:33;25.30;;;18.50;;
55527;SDS011;52818;43.308;21.916;2022-11-14T04:58:33;28.90;;;20.70;;
55527;SDS011;52818;43.308;21.916;2022-11-14T05:00:33;27.10;;;19.90;;
55527;SDS011;52818;43.308;21.916;2022-11-14T05:02:33;27.60;;;;;
55527;SDS011;52818;43.308;21.916;2022-11-14T05:04:33;29.90;;;21.40;;
55527;SDS011;52818;43.308;21.916;2022-11-14T05:06:34;;;;21.50;;
55527;SDS011;52818;43.308;21.916;2022-11-14T05:08:34;26.70;;;20.70;;
55527;SDS011;52818;43.308;21.916;2022-11-14T05:10:34;26.50;;;20.00;;
55527;SDS011;52818;43.308;21.916;2022-11-14T05:12:34;27.00;;;19.00;;
55527;SDS011;52818;43.308;21.916;2022-11-14T05:14:34;27.40;;;20.10;;
55527;SDS011;52818;43.308;21.916;2022-11-14T05:16:34;27.30;;;19.80;;
55527;SDS011;52818;43.308;21.916;2022-11-14T05:18:34;;;;18.90;;
55527;SDS011;52818;43.308;21.916;2022-11-14T05:20:34;25.90;;;;;
55527;SDS011;52818;43.308;21.916;2022-11-14T05:22:35;25.80;;;19.20;;
55527;SDS011;52818;43.308;21.916;2022-11-14T05:24:35;27.40;;;19.60;;
55527;SDS011;52818;43.308;21.916;2022-11-14T05:26:35;30.10;;;21.80;;
55527;SDS011;52818;43.308;21.916;2022-11-14T05:28:35;32.10;;;23.10;;
55527;SDS011;52818;43.308;21.916;2022-11-14T05:30:35;26.90;;;20.00;;
55527;SDS011;52818;43.308;21.916;2022-11-14T05:32:35;28.00;;;21.20;;
55527;SDS011;52818;43.308;21.916;2022-11-14T05:34:35;28.90;;;20.50;;
55527;SDS011;52818;43.308;21.916;2022-11-14T05:36:35;28.00;;;21.00;;
55527;SDS011;52818;43.308;21.916;2022-11-14T05:38:35;28.60;;;20.60;;
55527;SDS011;52818;43.308;21.916;2022-11-14T05:40:36;29.40;;;21.20;;
55527;SDS011;52818;43.308;21.916;2022-11-14T05:42:36;29.10;;;20.80;;
55527;SDS011;52818;43.308;21.916;2022-11-14T05:44:36;30.30;;;22.00;;
55527;SDS011;52818;43.308;21.916;2022-11-14T05:46:36;29.00;;;21.60;;
55527;SDS011;52818;43.308;21.916;2022-11-14T05:48:36;31.20;;;21.80;;
55527;SDS011;52818;43.308;21.916;2022-11-14T05:50:36;31.50;;;22.20;;
55527;SDS011;52818;43.308;21.916;2022-11-14T05:52:36;30.40;;;21.90;;
55527;SDS011;52818;43.308;21.916;2022-11-14T05:54:36;33.40;;;24.70;;
55527;SDS011;52818;43.308;21.916;2022-11-14T05:56:36;28.30;;;20.80;;
55527;SDS011;52818;43.308;21.916;2022-11-14T05:58:37;35.00;;;26.10;;
55527;SDS011;52818;43.308;21.916;2022-11-14T06:00:37;28.20;;;21.40;;
55527;SDS011;52818;43.308;21.916;2022-11-14T06:02:37;29.80;;;21.70;;
55527;SDS011;52818;43.308;21.916;2022-11-14T06:04:37;29.10;;;;;
55527;SDS011;52818;43.308;21.916;2022-11-14T06:06:37;27.20;;;20.80;;
55527;SDS011;52818;43.308;21.916;2022-11-14T06:08:37;29.10;;;20.00;;
55527;SDS011;52818;43.308;21.916;2022-11-14T06:10:37;35.10;;;27.10;;
55527;SDS011;52818;43.308;21.916;2022-11-14T06:12:37;38.60;;;30.90;;
55527;SDS011;52818;43.308;21.916;2022-11-14T06:14:37;39.50;;;31.40;;
55527;SDS011;52818;43.308;21.916;2022-11-14T06:16:37;38.90;;;31.80;;
55527;SDS011;52818;43.308;21.916;2022-11-14T06:18:38;35.10;;;27.70;;
55527;SDS011;52818;43.308;21.916;2022-11-14T06:20:38;32.20;;;23.70;;
55527;SDS011;52818;43.308;21.916;2022-11-14T06:22:38;28.90;;;20.80;;
55527;SDS011;52818;43.308;21.916;2022-11-14T06:24:38;27.40;;;20.60;;
55527;SDS011;52818;43.308;21.916;2022-11-14T06:26:38;26.50;;;20.30;;
55527;SDS011;52818;43.308;21.916;2022-11-14T06:28:38;26.60;;;19.60;;
55527;SDS011;52818;43.308;21.916;2022-11-14T06:30:38;28.60;;;20.20;;
55527;SDS011;52818;43.308;21.916;2022-11-14T06:32:38;29.90;;;21.90;;
55527;SDS011;52818;43.308;21.916;2022-11-14T06:34:38;30.10;;;22.00;;
55527;SDS011;52818;43.308;21.916;2022-11-14T06:36:39;29.30;;;;;
55527;SDS011;52818;43.308;21.916;2022-11-14T06:38:39;32.50;;;23.20;;
55527;SDS011;52818;43.308;21.916;2022-11-14T06:40:39;29.60;;;21.90;;
55527;SDS011;52818;43.308;21.916;2022-11-14T06:42:39;31.30;;;23.50;;
55527;SDS011;52818;43.308;21.916;2022-11-14T06:44:39;32.50;;;22.30;;
55527;SDS011;52818;43.308;21.916;2022-11-14T06:46:39;28.40;;;21.10;;
55527;SDS011;52818;43.308;21.916;2022-11-14T06:48:39;27.80;;;21.20;;
55527;SDS011;52818;43.308;21.916;2022-11-14T06:50:39;30.70;;;22.40;;
55527;SDS011;52818;43.308;21.916;2022-11-14T06:52:39;32.60;;;24.80;;
55527;SDS011;52818;43.308;21.916;2022-11-14T06:54:39;35.50;;;27.30;;
55527;SDS011;52818;43.308;21.916;2022-11-14T06:56:40;35.90;;;27.90;;
55527;SDS011;52818;43.308;21.916;2022-11-14T06:58:40;32.60;;;24.50;;
55527;SDS011;52818;43.308;21.916;2022-11-14T07:00:40;33.30;;;25.00;;
55527;SDS011;52818;43.308;21.916;2022-11-14T07:02:40;36.30;;;28.60;;
55527;SDS011;52818;43.308;21.916;2022-11-14T07:04:40;39.50;;;30.40;;
55527;SDS011;52818;43.308;21.916;2022-11-14T07:06:40;44.30;;;32.10;;
55527;SDS011;52818;43.308;21.916;2022-11-14T07:08:40;45.90;;;33.40;;
55527;SDS011;52818;43.308;21.916;2022-11-14T07:10:40;42.90;;;32.00;;
55527;SDS011;52818;43.308;21.916;2022-11-14T07:12:40;52.30;;;36.90;;
55527;SDS011;52818;43.308;21.916;2022-11-14T07:14:40;59.50;;;43.20;;
55527;SDS011;52818;43.308;21.916;2022-11-14T07:16:41;56.70;;;41.30;;
55527;SDS011;52818;43.308;21.916;2022-11-14T07:18:41;53.00;;;38.90;;
55527;SDS011;52818;43.308;21.916;2022-11-14T07:20:41;53.10;;;39.40;;
55527;SDS011;52818;43.308;21.916;2022-11-14T07:22:41;52.20;;;37.00;;
55527;SDS011;52818;43.308;21.916;2022-11-14T07:24:41;49.60;;;35.70;;
55527;SDS011;52818;43.308;21.916;2022-11-14T07:26:41;46.90;;;35.20;;
55527;SDS011;52818;43.308;21.916;2022-11-14T07:28:42;50.60;;;35.40;;
55527;SDS011;52818;43.308;21.916;2022-11-14T07:30:41;44.80;;;33.40;;
55527;SDS011;52818;43.308;21.916;2022-11-14T07:32:41;45.30;;;32.50;;
55527;SDS011;52818;43.308;21.916;2022-11-14T07:34:41;43.00;;;31.40;;
55527;SDS011;52818;43.308;21.916;2022-11-14T07:36:42;45.00;;;31.20;;
55527;SDS011;52818;43.308;21.916;2022-11-14T07:38:42;43.10;;;31.10;;
55527;SDS011;52818;43.308;21.916;2022-11-14T07:40:42;45.60;;;30.40;;
55527;SDS011;52818;43.308;21.916;2022-11-14T07:42:42;40.00;;;29.00;;
55527;SDS011;52818;43.308;21.916;2022-11-14T07:44:42;37.90;;;26.70;;
55527;SDS011;52818;43.308;21.916;2022-11-14T07:46:42;37.30;;;26.90;;
55527;SDS011;52818;43.308;21.916;2022-11-14T07:48:42;33.90;;;24.20;;
55527;SDS011;52818;43.308;21.916;2022-11-14T07:50:42;31.30;;;23.40;;
55527;SDS011;52818;43.308;21.916;2022-11-14T07:52:42;32.90;;;;;
55527;SDS011;52818;43.308;21.916;2022-11-14T07:54:42;32.50;;;23.50;;
55527;SDS011;52818;43.308;21.916;2022-11-14T07:56:43;29.00;;;21.80;;
55527;SDS011;52818;43.308;21.916;2022-11-14T07:58:43;27.60;;;20.40;;
55527;SDS011;52818;43.308;21.916;2022-11-14T08:00:43;24.90;;;19.40;;
55527;SDS011;52818;43.308;21.916;2022-11-14T08:02:44;25.90;;;20.30;;
55527;SDS011;52818;43.308;21.916;2022-11-14T08:04:43;26.20;;;20.00;;
55527;SDS011;52818;43.308;21.916;2022-11-14T08:06:43;27.50;;;20.90;;
55527;SDS011;52818;43.308;21.916;2022-11-14T08:08:43;27.10;;;20.70;;
55527;SDS011;52818;43.308;21.916;2022-11-14T08:10:43;25.80;;;20.00;;
55527;SDS011;52818;43.308;21.916;2022-11-14T08:12:44;26.10;;;19.30;;
55527;SDS011;52818;43.308;21.916;2022-11-14T08:14:43;26.80;;;19.60;;
55527;SDS011;52818;43.308;21.916;2022-11-14T08:16:44;24.90;;;19.20;;
55527;SDS011;52818;43.308;21.916;2022-11-14T08:18:44;25.20;;;;;
55527;SDS011;52818;43.308;21.916;2022-11-14T08:20:44;;;;18.50;;
55527;SDS011;52818;43.308;21.916;2022-11-14T08:24:44;25.60;;;19.00;;
55527;SDS011;52818;43.308;21.916;2022-11-14T08:26:44;21.90;;;17.60;;
55527;SDS011;52818;43.308;21.916;2022-11-14T08:28:44;23.40;;;18.00;;
55527;SDS011;52818;43.308;21.916;2022-11-14T08:30:44;21.70;;;17.50;;
55527;SDS011;52818;43.308;21.916;2022-11-14T08:32:44;22.00;;;16.70;;
55527;SDS011;52818;43.308;21.916;2022-11-14T08:34:44;22.20;;;17.30;;
55527;SDS011;52818;43.308;21.916;2022-11-14T08:36:44;23.20;;;17.50;;
55527;SDS011;52818;43.308;21.916;2022-11-14T08:38:45;23.10;;;17.60;;
55527;SDS011;52818;43.308;21.916;2022-11-14T08:40:45;22.80;;;17.70;;
55527;SDS011;52818;43.308;21.916;2022-11-14T08:42:45;23.60;;;17.80;;
55527;SDS011;52818;43.308;21.916;2022-11-14T08:44:45;22.80;;;18.20;;
55527;SDS011;52818;43.308;21.916;2022-11-14T08:46:45;25.60;;;18.40;;
55527;SDS011;52818;43.308;21.916;2022-11-14T08:48:45;22.60;;;17.90;;
55527;SDS011;52818;43.308;21.916;2022-11-14T08:50:45;24.20;;;18.00;;
55527;SDS011;52818;43.308;21.916;2022-11-14T08:52:48;22.30;;;17.60;;
55527;SDS011;52818;43.308;21.916;2022-11-14T08:54:45;22.20;;;17.40;;
55527;SDS011;52818;43.308;21.916;2022-11-14T08:56:45;23.40;;;17.90;;
55527;SDS011;52818;43.308;21.916;2022-11-14T08:58:46;22.70;;;;;
55527;SDS011;52818;43.308;21.916;2022-11-14T09:00:46;22.50;;;18.00;;
55527;SDS011;52818;43.308;21.916;2022-11-14T09:02:46;22.80;;;18.30;;
55527;SDS011;52818;43.308;21.916;2022-11-14T09:04:46;22.10;;;17.70;;
55527;SDS011;52818;43.308;21.916;2022-11-14T09:06:46;23.00;;;18.20;;
55527;SDS011;52818;43.308;21.916;2022-11-14T09:08:46;23.30;;;17.70;;
55527;SDS011;52818;43.308;21.916;2022-11-14T09:10:46;22.90;;;18.90;;
55527;SDS011;52818;43.308;21.916;2022-11-14T09:12:46;21.40;;;17.00;;
55527;SDS011;52818;43.308;21.916;2022-11-14T09:14:46;18.90;;;15.60;;
55527;SDS011;52818;43.308;21.916;2022-11-14T09:16:47;20.80;;;16.20;;
55527;SDS011;52818;43.308;21.916;2022-11-14T09:18:47;20.20;;;15.80;;
55527;SDS011;52818;43.308;21.916;2022-11-14T09:20:47;19.40;;;;;
55527;SDS011;52818;43.308;21.916;2022-11-14T09:22:47;18.40;;;15.10;;
55527;SDS011;52818;43.308;21.916;2022-11-14T09:24:47;20.10;;;16.40;;
55527;SDS011;52818;43.308;21.916;2022-11-14T09:26:47;17.60;;;14.70;;
55527;SDS011;52818;43.308;21.916;2022-11-14T09:28:47;18.00;;;14.50;;
55527;SDS011;52818;43.308;21.916;2022-11-14T09:30:47;17.10;;;14.30;;
55527;SDS011;52818;43.308;21.916;2022-11-14T09:32:47;19.80;;;15.60;;
55527;SDS011;52818;43.308;21.916;2022-11-14T09:34:47;17.70;;;14.70;;
55527;SDS011;52818;43.308;21.916;2022-11-14T09:36:47;20.40;;;15.80;;
55527;SDS011;52818;43.308;21.916;2022-11-14T09:38:49;19.50;;;15.00;;
55527;SDS011;52818;43.308;21.916;2022-11-14T09:40:51;17.90;;;14.40;;
55527;SDS011;52818;43.308;21.916;2022-11-14T09:42:53;20.50;;;15.50;;
55527;SDS011;52818;43.308;21.916;2022-11-14T09:44:48;17.50;;;14.50;;
55527;SDS011;52818;43.308;21.916;2022-11-14T09:46:52;17.60;;;;;
55527;SDS011;52818;43.308;21.916;2022-11-14T09:48:48;19.20;;;14.90;;
55527;SDS011;52818;43.308;21.916;2022-11-14T09:50:50;19.90;;;14.60;;
55527;SDS011;52818;43.308;21.916;2022-11-14T09:52:49;15.90;;;13.30;;
55527;SDS011;52818;43.308;21.916;2022-11-14T09:54:50;16.90;;;;;
55527;SDS011;52818;43.308;21.916;2022-11-14T09:56:48;19.00;;;14.80;;
55527;SDS011;52818;43.308;21.916;2022-11-14T09:58:48;18.90;;;15.10;;
55527;SDS011;52818;43.308;21.916;2022-11-14T10:00:50;18.70;;;14.20;;
55527;SDS011;52818;43.308;21.916;2022-11-14T10:02:53;17.80;;;14.00;;
55527;SDS011;52818;43.308;21.916;2022-11-14T10:04:51;17.50;;;14.90;;
55527;SDS011;52818;43.308;21.916;2022-11-14T10:06:51;16.10;;;13.30;;
55527;SDS011;52818;43.308;21.916;2022-11-14T10:08:52;;;;13.20;;
55527;SDS011;52818;43.308;21.916;2022-11-14T10:11:21;16.60;;;12.90;;
55527;SDS011;52818;43.308;21.916;2022-11-14T10:13:25;15.30;;;12.50;;
55527;SDS011;52818;43.308;21.916;2022-11-14T10:15:20;14.80;;;;;
55527;SDS011;52818;43.308;21.916;2022-11-14T10:17:35;14.90;;;13.00;;
55527;SDS011;52818;43.308;21.916;2022-11-14T10:19:22;15.30;;;12.90;;
55527;SDS011;52818;43.308;21.916;2022-11-14T10:21:25;;;;13.50;;
55527;SDS011;52818;43.308;21.916;2022-11-14T10:23:23;16.60;;;12.90;;
55527;SDS011;52818;43.308;21.916;2022-11-14T10:25:21;16.40;;;12.70;;
55527;SDS011;52818;43.308;21.916;2022-11-14T10:27:21;14.80;;;13.20;;
55527;SDS011;52818;43.308;21.916;2022-11-14T10:29:27;15.10;;;12.60;;
55527;SDS011;52818;43.308;21.916;2022-11-14T10:31:22;14.00;;;12.30;;
55527;SDS011;52818;43.308;21.916;2022-11-14T10:33:22;12.20;;;10.50;;
55527;SDS011;52818;43.308;21.916;2022-11-14T10:35:22;11.90;;;;;
55527;SDS011;52818;43.308;21.916;2022-11-14T10:37:21;13.00;;;10.60;;
55527;SDS011;52818;43.308;21.916;2022-11-14T10:39:21;13.20;;;10.50;;
55527;SDS011;52818;43.308;21.916;2022-11-14T10:41:20;12.00;;;10.20;;
55527;SDS011;52818;43.308;21.916;2022-11-14T10:43:22;12.20;;;10.10;;
55527;SDS011;52818;43.308;21.916;2022-11-14T10:45:22;11.30;;;10.00;;
55527;SDS011;52818;43.308;21.916;2022-11-14T10:47:21;11.40;;;9.40;;
55527;SDS011;52818;43.308;21.916;2022-11-14T10:49:22;11.60;;;9.50;;
55527;SDS011;52818;43.308;21.916;2022-11-14T10:51:23;11.40;;;9.60;;
55527;SDS011;52818;43.308;21.916;2022-11-14T10:53:24;13.60;;;10.40;;
55527;SDS011;52818;43.308;21.916;2022-11-14T10:55:21;12.80;;;;;
55527;SDS011;52818;43.308;21.916;2022-11-14T10:57:22;12.10;;;10.10;;
55527;SDS011;52818;43.308;21.916;2022-11-14T10:59:22;11.70;;;9.90;;
55527;SDS011;52818;43.308;21.916;2022-11-14T11:01:31;13.20;;;10.30;;
55527;SDS011;52818;43.308;21.916;2022-11-14T11:03:33;10.60;;;9.30;;
55527;SDS011;52818;43.308;21.916;2022-11-14T11:05:23;11.30;;;9.60;;
55527;SDS011;52818;43.308;21.916;2022-11-14T11:07:22;9.70;;;8.70;;
55527;SDS011;52818;43.308;21.916;2022-11-14T11:09:23;10.40;;;9.10;;
55527;SDS011;52818;43.308;21.916;2022-11-14T11:13:30;12.60;;;9.90;;
55527;SDS011;52818;43.308;21.916;2022-11-14T11:15:23;12.20;;;9.80;;
55527;SDS011;52818;43.308;21.916;2022-11-14T11:17:22;12.10;;;;;
55527;SDS011;52818;43.308;21.916;2022-11-14T11:19:23;13.40;;;11.00;;
55527;SDS011;52818;43.308;21.916;2022-11-14T11:21:22;12.70;;;10.20;;
55527;SDS011;52818;43.308;21.916;2022-11-14T11:23:23;13.80;;;10.50;;
55527;SDS011;52818;43.308;21.916;2022-11-14T11:25:24;12.00;;;10.20;;
55527;SDS011;52818;43.308;21.916;2022-11-14T11:27:24;11.20;;;8.90;;
55527;SDS011;52818;43.308;21.916;2022-11-14T11:29:23;12.10;;;9.30;;
55527;SDS011;52818;43.308;21.916;2022-11-14T11:31:23;10.60;;;9.10;;
55527;SDS011;52818;43.308;21.916;2022-11-14T11:33:24;11.00;;;9.30;;
55527;SDS011;52818;43.308;21.916;2022-11-14T11:35:23;11.10;;;9.50;;
55527;SDS011;52818;43.308;21.916;2022-11-14T11:37:24;11.70;;;9.60;;
55527;SDS011;52818;43.308;21.916;2022-11-14T11:39:25;11.60;;;9.90;;
55527;SDS011;52818;43.308;21.916;2022-11-14T11:41:24;12.10;;;9.80;;
55527;SDS011;52818;43.308;21.916;2022-11-14T11:43:25;12.00;;;10.00;;